sensor_id;sensor_type;location;lat;lon;timestamp;temperature;humidity
37910;DHT22;23741;49.446;8.754;2023-08-31T00:01:18;18.60;65.70
37910;DHT22;23741;49.446;8.754;2023-08-31T00:03:20;18.60;65.80
37910;DHT22;23741;49.446;8.754;2023-08-31T00:05:22;18.60;65.60
37910;DHT22;23741;49.446;8.754;2023-08-31T00:07:23;18.70;65.50
37910;DHT22;23741;49.446;8.754;2023-08-31T00:09:25;18.60;65.20
37910;DHT22;23741;49.446;8.754;2023-08-31T00:11:27;18.60;65.60
37910;DHT22;23741;49.446;8.754;2023-08-31T00:13:29;18.70;65.50
37910;DHT22;23741;49.446;8.754;2023-08-31T00:15:31;18.60;65.40
37910;DHT22;23741;49.446;8.754;2023-08-31T00:17:37;18.70;65.80
37910;DHT22;23741;49.446;8.754;2023-08-31T00:19:39;18.60;65.90
37910;DHT22;23741;49.446;8.754;2023-08-31T00:21:41;18.70;66.00
37910;DHT22;23741;49.446;8.754;2023-08-31T00:23:42;18.70;65.80
37910;DHT22;23741;49.446;8.754;2023-08-31T00:25:45;18.70;65.70
37910;DHT22;23741;49.446;8.754;2023-08-31T00:27:47;18.70;65.80
37910;DHT22;23741;49.446;8.754;2023-08-31T00:29:49;18.70;66.00
37910;DHT22;23741;49.446;8.754;2023-08-31T00:31:52;18.70;65.90
37910;DHT22;23741;49.446;8.754;2023-08-31T00:33:54;18.70;66.20
37910;DHT22;23741;49.446;8.754;2023-08-31T00:36:00;18.70;67.00
37910;DHT22;23741;49.446;8.754;2023-08-31T00:38:02;18.70;66.00
37910;DHT22;23741;49.446;8.754;2023-08-31T00:40:06;18.70;65.80
37910;DHT22;23741;49.446;8.754;2023-08-31T00:42:10;18.70;65.60
37910;DHT22;23741;49.446;8.754;2023-08-31T00:44:12;18.80;65.60
37910;DHT22;23741;49.446;8.754;2023-08-31T00:46:14;18.80;65.60
37910;DHT22;23741;49.446;8.754;2023-08-31T00:48:16;18.70;65.30
37910;DHT22;23741;49.446;8.754;2023-08-31T00:50:18;18.70;65.20
37910;DHT22;23741;49.446;8.754;2023-08-31T00:52:20;18.70;65.30
37910;DHT22;23741;49.446;8.754;2023-08-31T00:54:22;18.70;65.40
37910;DHT22;23741;49.446;8.754;2023-08-31T00:56:24;18.70;66.10
37910;DHT22;23741;49.446;8.754;2023-08-31T00:58:27;18.70;66.10
37910;DHT22;23741;49.446;8.754;2023-08-31T01:07:37;18.70;66.40
37910;DHT22;23741;49.446;8.754;2023-08-31T01:12:15;18.70;67.10
37910;DHT22;23741;49.446;8.754;2023-08-31T01:14:18;18.70;66.40
37910;DHT22;23741;49.446;8.754;2023-08-31T01:16:21;18.80;66.50
37910;DHT22;23741;49.446;8.754;2023-08-31T01:18:27;18.70;66.20
37910;DHT22;23741;49.446;8.754;2023-08-31T01:20:37;18.80;66.20
37910;DHT22;23741;49.446;8.754;2023-08-31T01:22:43;18.80;66.00
37910;DHT22;23741;49.446;8.754;2023-08-31T01:24:45;18.80;65.80
37910;DHT22;23741;49.446;8.754;2023-08-31T01:26:47;18.70;65.80
37910;DHT22;23741;49.446;8.754;2023-08-31T01:28:52;18.70;65.90
37910;DHT22;23741;49.446;8.754;2023-08-31T01:30:54;18.70;65.90
37910;DHT22;23741;49.446;8.754;2023-08-31T01:32:56;18.70;66.00
37910;DHT22;23741;49.446;8.754;2023-08-31T01:34:58;18.70;66.30
37910;DHT22;23741;49.446;8.754;2023-08-31T01:37:00;18.70;66.10
37910;DHT22;23741;49.446;8.754;2023-08-31T01:39:14;18.70;66.80
37910;DHT22;23741;49.446;8.754;2023-08-31T01:41:17;18.70;66.40
37910;DHT22;23741;49.446;8.754;2023-08-31T01:43:19;18.70;66.10
37910;DHT22;23741;49.446;8.754;2023-08-31T01:45:22;18.70;66.40
37910;DHT22;23741;49.446;8.754;2023-08-31T01:47:24;18.70;66.00
37910;DHT22;23741;49.446;8.754;2023-08-31T01:49:26;18.70;66.20
37910;DHT22;23741;49.446;8.754;2023-08-31T01:51:27;18.70;65.80
37910;DHT22;23741;49.446;8.754;2023-08-31T01:53:29;18.70;65.50
37910;DHT22;23741;49.446;8.754;2023-08-31T01:55:31;18.70;65.80
37910;DHT22;23741;49.446;8.754;2023-08-31T01:57:34;18.70;66.00
37910;DHT22;23741;49.446;8.754;2023-08-31T01:59:44;18.70;66.10
37910;DHT22;23741;49.446;8.754;2023-08-31T02:01:46;18.70;66.50
37910;DHT22;23741;49.446;8.754;2023-08-31T02:03:48;18.70;66.70
37910;DHT22;23741;49.446;8.754;2023-08-31T02:05:49;18.70;66.80
37910;DHT22;23741;49.446;8.754;2023-08-31T02:07:51;18.70;66.60
37910;DHT22;23741;49.446;8.754;2023-08-31T02:09:53;18.70;66.60
37910;DHT22;23741;49.446;8.754;2023-08-31T02:11:54;18.70;66.50
37910;DHT22;23741;49.446;8.754;2023-08-31T02:14:00;18.70;66.40
37910;DHT22;23741;49.446;8.754;2023-08-31T02:16:01;18.80;66.70
37910;DHT22;23741;49.446;8.754;2023-08-31T02:18:03;18.80;66.30
37910;DHT22;23741;49.446;8.754;2023-08-31T02:20:05;18.70;66.20
37910;DHT22;23741;49.446;8.754;2023-08-31T02:22:08;18.70;66.30
37910;DHT22;23741;49.446;8.754;2023-08-31T02:24:10;18.80;66.40
37910;DHT22;23741;49.446;8.754;2023-08-31T02:26:15;18.80;66.40
37910;DHT22;23741;49.446;8.754;2023-08-31T02:28:16;18.80;66.40
37910;DHT22;23741;49.446;8.754;2023-08-31T02:30:19;18.80;66.30
37910;DHT22;23741;49.446;8.754;2023-08-31T02:32:21;18.80;66.00
37910;DHT22;23741;49.446;8.754;2023-08-31T02:34:23;18.80;66.40
37910;DHT22;23741;49.446;8.754;2023-08-31T02:36:24;18.70;66.10
37910;DHT22;23741;49.446;8.754;2023-08-31T02:38:26;18.70;66.50
37910;DHT22;23741;49.446;8.754;2023-08-31T02:40:28;18.70;66.10
37910;DHT22;23741;49.446;8.754;2023-08-31T02:42:29;18.70;65.80
37910;DHT22;23741;49.446;8.754;2023-08-31T02:44:31;18.70;65.90
37910;DHT22;23741;49.446;8.754;2023-08-31T02:46:33;18.70;66.00
37910;DHT22;23741;49.446;8.754;2023-08-31T02:48:35;18.70;66.40
37910;DHT22;23741;49.446;8.754;2023-08-31T02:50:37;18.70;66.60
37910;DHT22;23741;49.446;8.754;2023-08-31T02:52:39;18.70;66.60
37910;DHT22;23741;49.446;8.754;2023-08-31T02:54:41;18.70;66.30
37910;DHT22;23741;49.446;8.754;2023-08-31T02:56:43;18.70;66.50
37910;DHT22;23741;49.446;8.754;2023-08-31T02:58:44;18.70;66.60
37910;DHT22;23741;49.446;8.754;2023-08-31T03:00:46;18.70;66.50
37910;DHT22;23741;49.446;8.754;2023-08-31T03:02:50;18.70;67.00
37910;DHT22;23741;49.446;8.754;2023-08-31T03:04:55;18.70;67.00
37910;DHT22;23741;49.446;8.754;2023-08-31T03:06:58;18.70;67.90
37910;DHT22;23741;49.446;8.754;2023-08-31T03:09:00;18.70;67.10
37910;DHT22;23741;49.446;8.754;2023-08-31T03:11:03;18.70;67.20
37910;DHT22;23741;49.446;8.754;2023-08-31T03:13:05;18.70;67.00
37910;DHT22;23741;49.446;8.754;2023-08-31T03:15:07;18.70;66.90
37910;DHT22;23741;49.446;8.754;2023-08-31T03:17:09;18.70;67.20
37910;DHT22;23741;49.446;8.754;2023-08-31T03:19:11;18.80;67.10
37910;DHT22;23741;49.446;8.754;2023-08-31T03:21:12;18.80;67.00
37910;DHT22;23741;49.446;8.754;2023-08-31T03:23:14;18.70;67.30
37910;DHT22;23741;49.446;8.754;2023-08-31T03:25:16;18.80;67.20
37910;DHT22;23741;49.446;8.754;2023-08-31T03:27:18;18.80;67.10
37910;DHT22;23741;49.446;8.754;2023-08-31T03:29:20;18.70;67.10
37910;DHT22;23741;49.446;8.754;2023-08-31T03:31:22;18.70;67.10
37910;DHT22;23741;49.446;8.754;2023-08-31T03:33:24;18.70;67.20
37910;DHT22;23741;49.446;8.754;2023-08-31T03:35:26;18.70;66.80
37910;DHT22;23741;49.446;8.754;2023-08-31T03:37:33;18.70;66.50
37910;DHT22;23741;49.446;8.754;2023-08-31T03:39:35;18.80;67.60
37910;DHT22;23741;49.446;8.754;2023-08-31T03:41:37;18.70;66.40
37910;DHT22;23741;49.446;8.754;2023-08-31T03:43:42;18.70;66.70
37910;DHT22;23741;49.446;8.754;2023-08-31T03:45:45;18.70;67.00
37910;DHT22;23741;49.446;8.754;2023-08-31T03:47:47;18.70;67.00
37910;DHT22;23741;49.446;8.754;2023-08-31T03:49:48;18.70;67.00
37910;DHT22;23741;49.446;8.754;2023-08-31T03:51:50;18.70;66.90
37910;DHT22;23741;49.446;8.754;2023-08-31T03:53:54;18.70;66.60
37910;DHT22;23741;49.446;8.754;2023-08-31T03:55:58;18.70;66.70
37910;DHT22;23741;49.446;8.754;2023-08-31T03:57:59;18.70;66.40
37910;DHT22;23741;49.446;8.754;2023-08-31T04:00:01;18.70;66.60
37910;DHT22;23741;49.446;8.754;2023-08-31T04:02:14;18.70;66.80
37910;DHT22;23741;49.446;8.754;2023-08-31T04:04:16;18.70;67.20
37910;DHT22;23741;49.446;8.754;2023-08-31T04:06:18;18.70;67.20
37910;DHT22;23741;49.446;8.754;2023-08-31T04:08:19;18.70;66.80
37910;DHT22;23741;49.446;8.754;2023-08-31T04:10:21;18.70;66.90
37910;DHT22;23741;49.446;8.754;2023-08-31T04:12:23;18.60;66.70
37910;DHT22;23741;49.446;8.754;2023-08-31T04:14:26;18.70;66.60
37910;DHT22;23741;49.446;8.754;2023-08-31T04:16:28;18.70;66.60
37910;DHT22;23741;49.446;8.754;2023-08-31T04:18:30;18.70;66.50
37910;DHT22;23741;49.446;8.754;2023-08-31T04:20:32;18.70;67.00
37910;DHT22;23741;49.446;8.754;2023-08-31T04:22:34;18.70;66.80
37910;DHT22;23741;49.446;8.754;2023-08-31T04:24:36;18.60;67.20
37910;DHT22;23741;49.446;8.754;2023-08-31T04:26:38;18.70;67.00
37910;DHT22;23741;49.446;8.754;2023-08-31T04:28:40;18.70;67.20
37910;DHT22;23741;49.446;8.754;2023-08-31T04:30:42;18.70;67.20
37910;DHT22;23741;49.446;8.754;2023-08-31T04:32:46;18.70;67.10
37910;DHT22;23741;49.446;8.754;2023-08-31T04:34:48;18.70;66.80
37910;DHT22;23741;49.446;8.754;2023-08-31T04:36:50;18.70;66.70
37910;DHT22;23741;49.446;8.754;2023-08-31T04:38:51;18.70;66.40
37910;DHT22;23741;49.446;8.754;2023-08-31T04:40:53;18.70;66.60
37910;DHT22;23741;49.446;8.754;2023-08-31T04:42:55;18.70;66.80
37910;DHT22;23741;49.446;8.754;2023-08-31T04:44:57;18.70;67.00
37910;DHT22;23741;49.446;8.754;2023-08-31T04:46:58;18.70;67.10
37910;DHT22;23741;49.446;8.754;2023-08-31T04:49:00;18.70;66.80
37910;DHT22;23741;49.446;8.754;2023-08-31T04:51:02;18.70;66.90
37910;DHT22;23741;49.446;8.754;2023-08-31T04:53:05;18.70;67.00
37910;DHT22;23741;49.446;8.754;2023-08-31T04:55:07;18.70;67.80
37910;DHT22;23741;49.446;8.754;2023-08-31T04:57:09;18.70;66.90
37910;DHT22;23741;49.446;8.754;2023-08-31T04:59:11;18.70;67.20
37910;DHT22;23741;49.446;8.754;2023-08-31T05:01:13;18.70;66.90
37910;DHT22;23741;49.446;8.754;2023-08-31T05:03:16;18.70;66.80
37910;DHT22;23741;49.446;8.754;2023-08-31T05:05:17;18.70;67.10
37910;DHT22;23741;49.446;8.754;2023-08-31T05:07:22;18.70;67.10
37910;DHT22;23741;49.446;8.754;2023-08-31T05:09:24;18.70;67.00
37910;DHT22;23741;49.446;8.754;2023-08-31T05:11:26;18.70;66.80
37910;DHT22;23741;49.446;8.754;2023-08-31T05:13:27;18.70;66.90
37910;DHT22;23741;49.446;8.754;2023-08-31T05:15:29;18.70;66.90
37910;DHT22;23741;49.446;8.754;2023-08-31T05:17:31;18.60;66.80
37910;DHT22;23741;49.446;8.754;2023-08-31T05:19:33;18.70;66.80
37910;DHT22;23741;49.446;8.754;2023-08-31T05:21:35;18.60;66.70
37910;DHT22;23741;49.446;8.754;2023-08-31T05:23:37;18.70;66.90
37910;DHT22;23741;49.446;8.754;2023-08-31T05:25:45;18.60;66.80
37910;DHT22;23741;49.446;8.754;2023-08-31T05:27:46;18.70;67.00
37910;DHT22;23741;49.446;8.754;2023-08-31T05:29:48;18.60;67.20
37910;DHT22;23741;49.446;8.754;2023-08-31T05:31:53;18.60;67.40
37910;DHT22;23741;49.446;8.754;2023-08-31T05:33:55;18.60;67.50
37910;DHT22;23741;49.446;8.754;2023-08-31T05:35:57;18.70;67.90
37910;DHT22;23741;49.446;8.754;2023-08-31T05:37:58;18.70;67.90
37910;DHT22;23741;49.446;8.754;2023-08-31T05:40:00;18.70;67.90
37910;DHT22;23741;49.446;8.754;2023-08-31T05:42:02;18.70;67.80
37910;DHT22;23741;49.446;8.754;2023-08-31T05:44:04;18.70;68.00
37910;DHT22;23741;49.446;8.754;2023-08-31T05:46:06;18.70;68.00
37910;DHT22;23741;49.446;8.754;2023-08-31T05:48:08;18.80;67.70
37910;DHT22;23741;49.446;8.754;2023-08-31T05:50:10;18.80;67.50
37910;DHT22;23741;49.446;8.754;2023-08-31T05:52:12;18.80;67.60
37910;DHT22;23741;49.446;8.754;2023-08-31T05:54:14;18.80;67.60
37910;DHT22;23741;49.446;8.754;2023-08-31T05:56:16;18.80;67.80
37910;DHT22;23741;49.446;8.754;2023-08-31T05:58:17;18.80;67.60
37910;DHT22;23741;49.446;8.754;2023-08-31T06:00:19;18.80;67.60
37910;DHT22;23741;49.446;8.754;2023-08-31T06:02:21;18.80;67.50
37910;DHT22;23741;49.446;8.754;2023-08-31T06:04:23;18.80;67.40
37910;DHT22;23741;49.446;8.754;2023-08-31T06:06:24;18.80;67.00
37910;DHT22;23741;49.446;8.754;2023-08-31T06:08:26;18.90;67.60
37910;DHT22;23741;49.446;8.754;2023-08-31T06:10:28;18.80;67.80
37910;DHT22;23741;49.446;8.754;2023-08-31T06:12:30;18.90;67.60
37910;DHT22;23741;49.446;8.754;2023-08-31T06:14:32;18.90;67.50
37910;DHT22;23741;49.446;8.754;2023-08-31T06:16:34;18.90;67.40
37910;DHT22;23741;49.446;8.754;2023-08-31T06:18:36;18.90;67.00
37910;DHT22;23741;49.446;8.754;2023-08-31T06:20:38;18.90;67.20
37910;DHT22;23741;49.446;8.754;2023-08-31T06:22:39;18.90;67.20
37910;DHT22;23741;49.446;8.754;2023-08-31T06:24:41;18.90;67.60
37910;DHT22;23741;49.446;8.754;2023-08-31T06:26:44;18.90;67.90
37910;DHT22;23741;49.446;8.754;2023-08-31T06:28:45;18.90;67.80
37910;DHT22;23741;49.446;8.754;2023-08-31T06:30:47;18.90;67.60
37910;DHT22;23741;49.446;8.754;2023-08-31T06:32:49;18.90;67.50
37910;DHT22;23741;49.446;8.754;2023-08-31T06:34:51;19.00;67.40
37910;DHT22;23741;49.446;8.754;2023-08-31T06:36:53;19.00;67.30
37910;DHT22;23741;49.446;8.754;2023-08-31T06:38:55;19.00;67.20
37910;DHT22;23741;49.446;8.754;2023-08-31T06:40:56;19.00;67.00
37910;DHT22;23741;49.446;8.754;2023-08-31T06:43:00;19.00;67.10
37910;DHT22;23741;49.446;8.754;2023-08-31T06:45:06;19.00;67.10
37910;DHT22;23741;49.446;8.754;2023-08-31T06:47:08;19.00;67.20
37910;DHT22;23741;49.446;8.754;2023-08-31T06:49:10;19.00;67.40
37910;DHT22;23741;49.446;8.754;2023-08-31T06:51:11;19.10;67.00
37910;DHT22;23741;49.446;8.754;2023-08-31T06:53:13;19.10;66.80
37910;DHT22;23741;49.446;8.754;2023-08-31T06:55:15;19.10;66.70
37910;DHT22;23741;49.446;8.754;2023-08-31T06:57:17;19.10;66.60
37910;DHT22;23741;49.446;8.754;2023-08-31T06:59:19;19.10;66.70
37910;DHT22;23741;49.446;8.754;2023-08-31T07:01:21;19.10;66.60
37910;DHT22;23741;49.446;8.754;2023-08-31T07:03:23;19.10;66.30
37910;DHT22;23741;49.446;8.754;2023-08-31T07:05:28;19.10;66.40
37910;DHT22;23741;49.446;8.754;2023-08-31T07:07:31;19.10;66.40
37910;DHT22;23741;49.446;8.754;2023-08-31T07:09:32;19.10;66.70
37910;DHT22;23741;49.446;8.754;2023-08-31T07:11:34;19.10;66.60
37910;DHT22;23741;49.446;8.754;2023-08-31T07:13:36;19.10;66.40
37910;DHT22;23741;49.446;8.754;2023-08-31T07:15:37;19.10;66.10
37910;DHT22;23741;49.446;8.754;2023-08-31T07:17:39;19.10;66.00
37910;DHT22;23741;49.446;8.754;2023-08-31T07:19:41;19.10;65.90
37910;DHT22;23741;49.446;8.754;2023-08-31T07:21:43;19.10;65.80
37910;DHT22;23741;49.446;8.754;2023-08-31T07:23:44;19.10;65.90
37910;DHT22;23741;49.446;8.754;2023-08-31T07:25:46;19.10;65.50
37910;DHT22;23741;49.446;8.754;2023-08-31T07:27:48;19.10;65.70
37910;DHT22;23741;49.446;8.754;2023-08-31T07:29:50;19.10;65.70
37910;DHT22;23741;49.446;8.754;2023-08-31T07:31:52;19.10;65.70
37910;DHT22;23741;49.446;8.754;2023-08-31T07:33:53;19.10;65.70
37910;DHT22;23741;49.446;8.754;2023-08-31T07:35:55;19.10;65.80
37910;DHT22;23741;49.446;8.754;2023-08-31T07:37:59;19.10;65.70
37910;DHT22;23741;49.446;8.754;2023-08-31T07:40:01;19.10;65.50
37910;DHT22;23741;49.446;8.754;2023-08-31T07:42:02;19.10;65.70
37910;DHT22;23741;49.446;8.754;2023-08-31T07:44:05;19.10;65.60
37910;DHT22;23741;49.446;8.754;2023-08-31T07:46:07;19.20;65.80
37910;DHT22;23741;49.446;8.754;2023-08-31T07:48:09;19.20;65.50
37910;DHT22;23741;49.446;8.754;2023-08-31T07:50:11;19.20;65.70
37910;DHT22;23741;49.446;8.754;2023-08-31T07:52:13;19.20;66.40
37910;DHT22;23741;49.446;8.754;2023-08-31T07:54:21;19.20;65.90
37910;DHT22;23741;49.446;8.754;2023-08-31T07:56:23;19.30;65.60
37910;DHT22;23741;49.446;8.754;2023-08-31T07:58:28;19.30;65.60
37910;DHT22;23741;49.446;8.754;2023-08-31T08:00:30;19.30;65.50
37910;DHT22;23741;49.446;8.754;2023-08-31T08:02:31;19.30;65.60
37910;DHT22;23741;49.446;8.754;2023-08-31T08:04:33;19.40;65.70
37910;DHT22;23741;49.446;8.754;2023-08-31T08:06:35;19.40;65.20
37910;DHT22;23741;49.446;8.754;2023-08-31T08:08:37;19.40;65.10
37910;DHT22;23741;49.446;8.754;2023-08-31T08:10:39;19.40;64.90
37910;DHT22;23741;49.446;8.754;2023-08-31T08:12:41;19.50;64.80
37910;DHT22;23741;49.446;8.754;2023-08-31T08:14:46;19.50;64.70
37910;DHT22;23741;49.446;8.754;2023-08-31T08:16:48;19.50;64.80
37910;DHT22;23741;49.446;8.754;2023-08-31T08:18:50;19.50;65.00
37910;DHT22;23741;49.446;8.754;2023-08-31T08:20:55;19.50;65.10
37910;DHT22;23741;49.446;8.754;2023-08-31T08:22:56;19.50;65.40
37910;DHT22;23741;49.446;8.754;2023-08-31T08:24:59;19.60;65.20
37910;DHT22;23741;49.446;8.754;2023-08-31T08:27:01;19.60;64.90
37910;DHT22;23741;49.446;8.754;2023-08-31T08:29:03;19.60;65.00
37910;DHT22;23741;49.446;8.754;2023-08-31T08:31:05;19.60;65.00
37910;DHT22;23741;49.446;8.754;2023-08-31T08:33:08;19.60;64.90
37910;DHT22;23741;49.446;8.754;2023-08-31T08:35:10;19.70;65.00
37910;DHT22;23741;49.446;8.754;2023-08-31T08:37:12;19.60;65.00
37910;DHT22;23741;49.446;8.754;2023-08-31T08:39:13;19.60;65.20
37910;DHT22;23741;49.446;8.754;2023-08-31T08:41:15;19.70;65.10
37910;DHT22;23741;49.446;8.754;2023-08-31T08:43:23;19.70;64.90
37910;DHT22;23741;49.446;8.754;2023-08-31T08:45:25;19.70;64.90
37910;DHT22;23741;49.446;8.754;2023-08-31T08:47:28;19.70;64.70
37910;DHT22;23741;49.446;8.754;2023-08-31T08:49:30;19.70;64.50
37910;DHT22;23741;49.446;8.754;2023-08-31T08:51:32;19.80;64.50
37910;DHT22;23741;49.446;8.754;2023-08-31T08:53:34;19.70;64.70
37910;DHT22;23741;49.446;8.754;2023-08-31T08:55:36;19.70;64.60
37910;DHT22;23741;49.446;8.754;2023-08-31T08:57:38;19.80;64.80
37910;DHT22;23741;49.446;8.754;2023-08-31T08:59:41;19.70;64.70
37910;DHT22;23741;49.446;8.754;2023-08-31T09:01:43;19.80;64.80
37910;DHT22;23741;49.446;8.754;2023-08-31T09:03:45;19.80;65.00
37910;DHT22;23741;49.446;8.754;2023-08-31T09:05:46;19.80;65.20
37910;DHT22;23741;49.446;8.754;2023-08-31T09:10:20;19.80;65.30
37910;DHT22;23741;49.446;8.754;2023-08-31T09:12:23;19.90;65.50
37910;DHT22;23741;49.446;8.754;2023-08-31T09:14:25;20.00;65.40
37910;DHT22;23741;49.446;8.754;2023-08-31T09:16:28;20.00;65.40
37910;DHT22;23741;49.446;8.754;2023-08-31T09:18:31;20.00;65.40
37910;DHT22;23741;49.446;8.754;2023-08-31T09:20:46;20.00;65.30
37910;DHT22;23741;49.446;8.754;2023-08-31T09:22:48;20.10;65.40
37910;DHT22;23741;49.446;8.754;2023-08-31T09:24:53;20.10;65.00
37910;DHT22;23741;49.446;8.754;2023-08-31T09:26:55;20.20;64.90
37910;DHT22;23741;49.446;8.754;2023-08-31T09:28:57;20.20;64.60
37910;DHT22;23741;49.446;8.754;2023-08-31T09:31:06;20.20;64.80
37910;DHT22;23741;49.446;8.754;2023-08-31T09:33:16;20.30;64.90
37910;DHT22;23741;49.446;8.754;2023-08-31T09:35:18;20.30;64.70
37910;DHT22;23741;49.446;8.754;2023-08-31T09:37:23;20.30;64.30
37910;DHT22;23741;49.446;8.754;2023-08-31T09:39:25;20.30;64.00
37910;DHT22;23741;49.446;8.754;2023-08-31T09:41:55;20.40;64.10
37910;DHT22;23741;49.446;8.754;2023-08-31T09:44:14;20.40;63.60
37910;DHT22;23741;49.446;8.754;2023-08-31T09:46:16;20.40;63.60
37910;DHT22;23741;49.446;8.754;2023-08-31T09:48:18;20.40;63.80
37910;DHT22;23741;49.446;8.754;2023-08-31T09:50:20;20.50;64.00
37910;DHT22;23741;49.446;8.754;2023-08-31T09:52:23;20.50;64.00
37910;DHT22;23741;49.446;8.754;2023-08-31T09:54:25;20.50;64.00
37910;DHT22;23741;49.446;8.754;2023-08-31T09:56:29;20.60;64.00
37910;DHT22;23741;49.446;8.754;2023-08-31T09:58:33;20.60;64.10
37910;DHT22;23741;49.446;8.754;2023-08-31T10:00:35;20.70;64.00
37910;DHT22;23741;49.446;8.754;2023-08-31T10:02:38;20.70;63.80
37910;DHT22;23741;49.446;8.754;2023-08-31T10:04:39;20.80;63.20
37910;DHT22;23741;49.446;8.754;2023-08-31T10:06:42;20.80;62.80
37910;DHT22;23741;49.446;8.754;2023-08-31T10:08:45;20.80;62.40
37910;DHT22;23741;49.446;8.754;2023-08-31T10:10:47;20.90;62.70
37910;DHT22;23741;49.446;8.754;2023-08-31T10:12:49;20.90;63.00
37910;DHT22;23741;49.446;8.754;2023-08-31T10:14:51;20.90;62.80
37910;DHT22;23741;49.446;8.754;2023-08-31T10:16:54;21.00;62.80
37910;DHT22;23741;49.446;8.754;2023-08-31T10:18:58;21.00;62.90
37910;DHT22;23741;49.446;8.754;2023-08-31T10:21:00;21.00;63.00
37910;DHT22;23741;49.446;8.754;2023-08-31T10:23:03;21.10;63.40
37910;DHT22;23741;49.446;8.754;2023-08-31T10:25:05;21.20;63.00
37910;DHT22;23741;49.446;8.754;2023-08-31T10:27:17;21.20;62.40
37910;DHT22;23741;49.446;8.754;2023-08-31T10:29:25;21.20;62.10
37910;DHT22;23741;49.446;8.754;2023-08-31T10:31:29;21.20;62.50
37910;DHT22;23741;49.446;8.754;2023-08-31T10:33:34;21.30;61.40
37910;DHT22;23741;49.446;8.754;2023-08-31T10:35:49;21.30;61.50
37910;DHT22;23741;49.446;8.754;2023-08-31T10:37:52;21.40;61.80
37910;DHT22;23741;49.446;8.754;2023-08-31T10:40:02;21.40;61.10
37910;DHT22;23741;49.446;8.754;2023-08-31T10:42:08;21.40;62.00
37910;DHT22;23741;49.446;8.754;2023-08-31T10:44:26;21.40;60.30
37910;DHT22;23741;49.446;8.754;2023-08-31T10:48:30;21.40;59.90
37910;DHT22;23741;49.446;8.754;2023-08-31T10:50:50;21.30;60.00
37910;DHT22;23741;49.446;8.754;2023-08-31T10:52:52;21.40;59.90
37910;DHT22;23741;49.446;8.754;2023-08-31T10:54:57;21.40;60.10
37910;DHT22;23741;49.446;8.754;2023-08-31T10:59:09;21.40;60.50
37910;DHT22;23741;49.446;8.754;2023-08-31T11:01:11;21.40;60.70
37910;DHT22;23741;49.446;8.754;2023-08-31T11:03:13;21.40;60.50
37910;DHT22;23741;49.446;8.754;2023-08-31T11:07:18;21.40;60.40
37910;DHT22;23741;49.446;8.754;2023-08-31T11:09:20;21.40;60.50
37910;DHT22;23741;49.446;8.754;2023-08-31T11:11:22;21.50;60.80
37910;DHT22;23741;49.446;8.754;2023-08-31T11:13:24;21.50;60.50
37910;DHT22;23741;49.446;8.754;2023-08-31T11:15:26;21.50;60.00
37910;DHT22;23741;49.446;8.754;2023-08-31T11:17:29;21.50;59.70
37910;DHT22;23741;49.446;8.754;2023-08-31T11:19:31;21.50;59.50
37910;DHT22;23741;49.446;8.754;2023-08-31T11:21:36;21.60;59.50
37910;DHT22;23741;49.446;8.754;2023-08-31T11:23:38;21.50;59.80
37910;DHT22;23741;49.446;8.754;2023-08-31T11:25:39;21.50;60.20
37910;DHT22;23741;49.446;8.754;2023-08-31T11:27:41;21.50;60.40
37910;DHT22;23741;49.446;8.754;2023-08-31T11:29:43;21.50;60.20
37910;DHT22;23741;49.446;8.754;2023-08-31T11:31:45;21.50;60.00
37910;DHT22;23741;49.446;8.754;2023-08-31T11:33:48;21.50;60.80
37910;DHT22;23741;49.446;8.754;2023-08-31T11:35:50;21.60;61.00
37910;DHT22;23741;49.446;8.754;2023-08-31T11:37:56;21.50;59.90
37910;DHT22;23741;49.446;8.754;2023-08-31T11:39:58;21.60;60.20
37910;DHT22;23741;49.446;8.754;2023-08-31T11:42:02;21.60;59.90
37910;DHT22;23741;49.446;8.754;2023-08-31T11:44:04;21.60;59.50
37910;DHT22;23741;49.446;8.754;2023-08-31T11:46:06;21.60;59.60
37910;DHT22;23741;49.446;8.754;2023-08-31T11:48:09;21.60;59.60
37910;DHT22;23741;49.446;8.754;2023-08-31T11:50:11;21.60;59.70
37910;DHT22;23741;49.446;8.754;2023-08-31T11:52:15;21.70;59.50
37910;DHT22;23741;49.446;8.754;2023-08-31T11:54:17;21.60;59.80
37910;DHT22;23741;49.446;8.754;2023-08-31T11:56:19;21.60;59.90
37910;DHT22;23741;49.446;8.754;2023-08-31T11:58:20;21.70;59.70
37910;DHT22;23741;49.446;8.754;2023-08-31T12:00:23;21.80;60.60
37910;DHT22;23741;49.446;8.754;2023-08-31T12:02:24;21.80;59.70
37910;DHT22;23741;49.446;8.754;2023-08-31T12:04:26;21.90;59.80
37910;DHT22;23741;49.446;8.754;2023-08-31T12:06:28;21.90;59.50
37910;DHT22;23741;49.446;8.754;2023-08-31T12:08:30;21.90;56.90
37910;DHT22;23741;49.446;8.754;2023-08-31T12:10:32;22.00;58.00
37910;DHT22;23741;49.446;8.754;2023-08-31T12:12:34;21.90;58.00
37910;DHT22;23741;49.446;8.754;2023-08-31T12:14:37;22.10;58.20
37910;DHT22;23741;49.446;8.754;2023-08-31T12:16:39;22.10;59.00
37910;DHT22;23741;49.446;8.754;2023-08-31T12:18:41;22.10;58.50
37910;DHT22;23741;49.446;8.754;2023-08-31T12:20:46;22.10;58.60
37910;DHT22;23741;49.446;8.754;2023-08-31T12:22:48;22.20;58.10
37910;DHT22;23741;49.446;8.754;2023-08-31T12:24:50;22.10;58.00
37910;DHT22;23741;49.446;8.754;2023-08-31T12:26:52;22.10;57.70
37910;DHT22;23741;49.446;8.754;2023-08-31T12:28:57;22.20;58.00
37910;DHT22;23741;49.446;8.754;2023-08-31T12:30:59;22.20;58.10
37910;DHT22;23741;49.446;8.754;2023-08-31T12:33:01;22.20;57.60
37910;DHT22;23741;49.446;8.754;2023-08-31T12:35:02;22.20;57.60
37910;DHT22;23741;49.446;8.754;2023-08-31T12:37:05;22.20;57.60
37910;DHT22;23741;49.446;8.754;2023-08-31T12:39:07;22.20;57.90
37910;DHT22;23741;49.446;8.754;2023-08-31T12:41:11;22.20;58.00
37910;DHT22;23741;49.446;8.754;2023-08-31T12:43:13;22.20;57.80
37910;DHT22;23741;49.446;8.754;2023-08-31T12:45:15;22.20;57.70
37910;DHT22;23741;49.446;8.754;2023-08-31T12:47:16;22.20;57.60
37910;DHT22;23741;49.446;8.754;2023-08-31T12:49:18;22.30;57.90
37910;DHT22;23741;49.446;8.754;2023-08-31T12:51:22;22.30;57.60
37910;DHT22;23741;49.446;8.754;2023-08-31T12:53:23;22.30;57.60
37910;DHT22;23741;49.446;8.754;2023-08-31T12:55:25;22.30;57.80
37910;DHT22;23741;49.446;8.754;2023-08-31T12:57:27;22.30;57.30
37910;DHT22;23741;49.446;8.754;2023-08-31T12:59:28;22.30;57.50
37910;DHT22;23741;49.446;8.754;2023-08-31T13:01:30;22.30;57.50
37910;DHT22;23741;49.446;8.754;2023-08-31T13:03:32;22.30;58.00
37910;DHT22;23741;49.446;8.754;2023-08-31T13:05:34;22.30;58.20
37910;DHT22;23741;49.446;8.754;2023-08-31T13:07:36;22.40;58.30
37910;DHT22;23741;49.446;8.754;2023-08-31T13:09:38;22.40;58.60
37910;DHT22;23741;49.446;8.754;2023-08-31T13:11:40;22.40;58.20
37910;DHT22;23741;49.446;8.754;2023-08-31T13:13:42;22.50;58.60